Time;durP1;ratioP1;P1;durP2;ratioP2;P2;SDS_P1;SDS_P2;PMS_P1;PMS_P2;Temp;Humidity;BMP_temperature;BMP_pressure;BME280_temperature;BME280_humidity;BME280_pressure;Samples;Min_cycle;Max_cycle;Signal;HPM_P1;HPM_P2
2021/07/28 00:00:11;;;;;;;18.13;10.47;;;;;;;;;;794451;173;918530;-66
2021/07/28 00:02:37;;;;;;;15.23;9.53;;;;;;;;;;802794;173;919390;-66
2021/07/28 00:05:03;;;;;;;15.67;10.17;;;;;;;;;;797922;173;918779;-66
2021/07/28 00:07:28;;;;;;;15.00;9.23;;;;;;;;;;792304;173;918555;-68
2021/07/28 00:09:54;;;;;;;17.67;10.80;;;;;;;;;;801317;173;919138;-66
2021/07/28 00:12:20;;;;;;;12.63;9.40;;;;;;;;;;792039;173;918550;-66
2021/07/28 00:14:46;;;;;;;15.60;10.33;;;;;;;;;;794220;173;918805;-65
2021/07/28 00:17:13;;;;;;;21.57;9.33;;;;;;;;;;795232;174;918667;-66
2021/07/28 00:24:41;;;;;;;12.90;8.73;;;;;;;;;;790113;174;917305;-67
2021/07/28 00:27:07;;;;;;;21.07;11.50;;;;;;;;;;786373;174;918967;-66
2021/07/28 00:29:33;;;;;;;12.90;10.77;;;;;;;;;;789821;174;919154;-67
2021/07/28 00:31:59;;;;;;;15.90;10.30;;;;;;;;;;791051;173;919740;-66
2021/07/28 00:34:24;;;;;;;15.63;10.50;;;;;;;;;;794437;173;918894;-67
2021/07/28 00:36:50;;;;;;;10.10;8.87;;;;;;;;;;771895;180;872972;-66
2021/07/28 00:39:16;;;;;;;19.43;11.70;;;;;;;;;;756849;181;919239;-66
2021/07/28 00:41:43;;;;;;;17.60;9.17;;;;;;;;;;757242;183;919440;-66
2021/07/28 00:44:09;;;;;;;17.10;9.40;;;;;;;;;;777369;181;918848;-66
2021/07/28 00:46:34;;;;;;;14.73;8.27;;;;;;;;;;759397;181;919406;-65
2021/07/28 00:49:00;;;;;;;22.47;10.00;;;;;;;;;;759516;181;919546;-65
2021/07/28 00:51:27;;;;;;;22.75;9.30;;;;;;;;;;797360;174;919214;-66
2021/07/28 00:53:53;;;;;;;19.93;11.20;;;;;;;;;;795590;176;918737;-65
2021/07/28 00:56:18;;;;;;;14.20;8.33;;;;;;;;;;794990;174;919321;-66
2021/07/28 00:58:44;;;;;;;12.10;9.00;;;;;;;;;;793647;174;918299;-68
2021/07/28 01:01:10;;;;;;;27.03;10.03;;;;;;;;;;798957;174;920091;-66
2021/07/28 01:03:36;;;;;;;17.40;10.07;;;;;;;;;;792988;174;919632;-65
2021/07/28 01:06:02;;;;;;;24.03;10.73;;;;;;;;;;791952;174;923476;-66
2021/07/28 01:08:28;;;;;;;27.08;9.80;;;;;;;;;;798374;173;919240;-65
2021/07/28 01:10:54;;;;;;;16.97;9.60;;;;;;;;;;794083;173;921660;-65
2021/07/28 01:13:26;;;;;;;25.03;11.47;;;;;;;;;;793320;173;919657;-66
2021/07/28 01:15:49;;;;;;;13.87;10.93;;;;;;;;;;795394;173;918556;-65
2021/07/28 01:18:13;;;;;;;19.02;11.65;;;;;;;;;;789405;176;923371;-65
2021/07/28 01:20:38;;;;;;;17.40;11.10;;;;;;;;;;784541;173;917820;-65
2021/07/28 01:23:04;;;;;;;15.33;9.70;;;;;;;;;;792695;173;919527;-65
2021/07/28 01:25:30;;;;;;;21.77;12.20;;;;;;;;;;798033;173;918871;-65
2021/07/28 01:27:56;;;;;;;18.43;11.10;;;;;;;;;;792548;174;919688;-65
2021/07/28 01:30:22;;;;;;;16.90;12.27;;;;;;;;;;796412;174;918925;-65
2021/07/28 01:32:48;;;;;;;16.40;12.37;;;;;;;;;;799279;174;918814;-64
2021/07/28 01:35:14;;;;;;;17.43;12.27;;;;;;;;;;795050;174;918209;-65
2021/07/28 01:37:39;;;;;;;19.70;11.73;;;;;;;;;;790718;174;919300;-65
2021/07/28 01:40:05;;;;;;;13.87;11.53;;;;;;;;;;791796;174;920276;-64
2021/07/28 01:42:31;;;;;;;29.00;13.50;;;;;;;;;;791560;174;903653;-65
2021/07/28 01:44:57;;;;;;;19.30;12.33;;;;;;;;;;791880;174;919604;-65
2021/07/28 01:47:23;;;;;;;16.43;11.50;;;;;;;;;;790984;176;919900;-65
2021/07/28 01:49:49;;;;;;;28.03;11.73;;;;;;;;;;788348;176;916648;-64
2021/07/28 01:52:15;;;;;;;22.48;11.95;;;;;;;;;;786417;174;916412;-65
2021/07/28 01:54:41;;;;;;;21.48;13.13;;;;;;;;;;793520;174;916216;-64
2021/07/28 01:57:06;;;;;;;24.50;11.43;;;;;;;;;;797890;174;916255;-65
2021/07/28 01:59:38;;;;;;;14.53;10.73;;;;;;;;;;790888;174;916573;-65
2021/07/28 02:01:58;;;;;;;18.50;11.00;;;;;;;;;;793068;174;926644;-65
2021/07/28 02:04:24;;;;;;;13.87;10.60;;;;;;;;;;798053;174;918571;-65
2021/07/28 02:06:50;;;;;;;18.43;10.27;;;;;;;;;;792432;174;920249;-65
2021/07/28 02:09:16;;;;;;;14.00;11.33;;;;;;;;;;790670;174;918645;-65
2021/07/28 02:11:42;;;;;;;14.90;10.07;;;;;;;;;;796252;177;919375;-67
2021/07/28 02:14:07;;;;;;;22.43;11.77;;;;;;;;;;794493;174;918681;-65
2021/07/28 02:16:33;;;;;;;18.02;11.23;;;;;;;;;;790616;175;919645;-65
2021/07/28 02:18:59;;;;;;;17.03;10.87;;;;;;;;;;794287;174;919038;-65
2021/07/28 02:21:25;;;;;;;19.53;9.77;;;;;;;;;;800016;173;919060;-65
2021/07/28 02:23:51;;;;;;;16.80;10.77;;;;;;;;;;792574;173;918788;-66
2021/07/28 02:26:17;;;;;;;21.20;10.95;;;;;;;;;;794775;173;919326;-65
2021/07/28 02:28:42;;;;;;;17.50;10.20;;;;;;;;;;800863;173;917638;-65
2021/07/28 02:31:08;;;;;;;27.80;9.70;;;;;;;;;;794516;173;919986;-65
2021/07/28 02:33:34;;;;;;;16.17;10.30;;;;;;;;;;796970;173;923954;-65
2021/07/28 02:36:00;;;;;;;17.10;10.60;;;;;;;;;;804775;174;918191;-65
2021/07/28 02:38:26;;;;;;;13.00;9.93;;;;;;;;;;784137;174;918566;-65
2021/07/28 02:40:52;;;;;;;15.70;10.80;;;;;;;;;;790442;174;918806;-65
2021/07/28 02:43:18;;;;;;;18.98;11.50;;;;;;;;;;791252;174;919771;-65
2021/07/28 02:45:43;;;;;;;15.43;10.37;;;;;;;;;;795064;176;918605;-65
2021/07/28 02:48:09;;;;;;;20.33;11.35;;;;;;;;;;782245;174;919244;-66
2021/07/28 02:50:35;;;;;;;21.93;12.60;;;;;;;;;;789145;174;919576;-65
2021/07/28 02:53:01;;;;;;;16.40;11.33;;;;;;;;;;798831;174;918391;-65
2021/07/28 02:55:27;;;;;;;16.60;11.17;;;;;;;;;;790499;174;905640;-64
2021/07/28 02:57:53;;;;;;;27.63;11.20;;;;;;;;;;794195;174;919682;-65
2021/07/28 03:00:18;;;;;;;21.60;11.70;;;;;;;;;;797424;174;920345;-66
2021/07/28 03:02:46;;;;;;;18.90;11.70;;;;;;;;;;792339;174;918520;-65
2021/07/28 03:05:14;;;;;;;15.93;11.98;;;;;;;;;;792304;174;921980;-65
2021/07/28 03:07:37;;;;;;;17.47;11.30;;;;;;;;;;800344;174;919561;-66
2021/07/28 03:10:03;;;;;;;18.47;10.57;;;;;;;;;;794105;174;922347;-65
2021/07/28 03:12:29;;;;;;;19.87;9.83;;;;;;;;;;792679;174;919083;-65
2021/07/28 03:14:55;;;;;;;15.53;10.43;;;;;;;;;;792574;174;918897;-65
2021/07/28 03:17:21;;;;;;;13.43;10.70;;;;;;;;;;797949;174;917966;-65
2021/07/28 03:19:46;;;;;;;17.67;12.80;;;;;;;;;;796073;174;902593;-65
2021/07/28 03:22:12;;;;;;;15.20;11.90;;;;;;;;;;785412;176;918702;-65
2021/07/28 03:24:38;;;;;;;18.40;12.47;;;;;;;;;;780226;178;918728;-64
2021/07/28 03:27:04;;;;;;;24.90;12.10;;;;;;;;;;761373;181;919418;-66
2021/07/28 03:29:30;;;;;;;17.73;11.87;;;;;;;;;;793429;174;919102;-65
2021/07/28 03:31:56;;;;;;;18.92;12.32;;;;;;;;;;801686;174;918429;-64
2021/07/28 03:34:22;;;;;;;32.90;13.60;;;;;;;;;;796657;173;917765;-64
2021/07/28 03:36:48;;;;;;;15.80;11.80;;;;;;;;;;785038;173;919851;-64
2021/07/28 03:39:13;;;;;;;15.20;11.37;;;;;;;;;;796321;173;918264;-65
2021/07/28 03:41:39;;;;;;;19.53;10.93;;;;;;;;;;786194;176;920345;-66
2021/07/28 03:44:06;;;;;;;14.77;11.60;;;;;;;;;;784506;176;919886;-66
2021/07/28 03:46:32;;;;;;;15.20;11.40;;;;;;;;;;783828;176;918832;-67
2021/07/28 03:48:58;;;;;;;19.73;11.67;;;;;;;;;;799088;173;920566;-65
2021/07/28 03:51:24;;;;;;;21.70;13.20;;;;;;;;;;792397;173;922127;-66
2021/07/28 03:53:50;;;;;;;22.93;13.57;;;;;;;;;;792803;174;915457;-65
2021/07/28 03:56:17;;;;;;;14.60;11.70;;;;;;;;;;798608;174;1066228;-66
2021/07/28 03:58:41;;;;;;;13.40;9.60;;;;;;;;;;792835;174;932566;-65
2021/07/28 04:01:07;;;;;;;16.87;13.13;;;;;;;;;;794506;174;916605;-65
2021/07/28 04:03:33;;;;;;;18.10;11.70;;;;;;;;;;790724;175;918046;-65
2021/07/28 04:05:59;;;;;;;19.77;13.33;;;;;;;;;;784210;176;919017;-65
2021/07/28 04:08:25;;;;;;;18.40;11.77;;;;;;;;;;795866;173;941127;-66
2021/07/28 04:10:51;;;;;;;16.70;11.52;;;;;;;;;;790685;174;919541;-65
2021/07/28 04:13:16;;;;;;;20.70;12.63;;;;;;;;;;797428;174;918898;-65
2021/07/28 04:15:42;;;;;;;26.57;12.30;;;;;;;;;;791729;174;919165;-66
2021/07/28 04:18:08;;;;;;;17.60;12.60;;;;;;;;;;792495;174;934583;-66
2021/07/28 04:20:34;;;;;;;18.03;13.53;;;;;;;;;;798700;174;918923;-65
2021/07/28 04:23:00;;;;;;;17.67;13.43;;;;;;;;;;794115;174;918761;-66
2021/07/28 04:25:26;;;;;;;18.00;13.03;;;;;;;;;;794871;174;919108;-66
2021/07/28 04:27:52;;;;;;;15.90;11.97;;;;;;;;;;803360;174;919431;-65
2021/07/28 04:30:17;;;;;;;15.43;11.73;;;;;;;;;;783399;174;916454;-66
2021/07/28 04:32:43;;;;;;;18.87;13.80;;;;;;;;;;789974;174;920386;-65
2021/07/28 04:35:09;;;;;;;15.60;12.13;;;;;;;;;;793056;174;918436;-65
2021/07/28 04:37:35;;;;;;;24.20;13.07;;;;;;;;;;800406;174;919527;-65
2021/07/28 04:40:02;;;;;;;24.40;11.67;;;;;;;;;;794224;174;919163;-65
2021/07/28 04:42:27;;;;;;;16.83;11.90;;;;;;;;;;791804;175;919130;-65
2021/07/28 04:44:53;;;;;;;15.63;11.20;;;;;;;;;;798959;174;919238;-65
2021/07/28 04:47:19;;;;;;;14.53;10.80;;;;;;;;;;792300;173;919187;-65
2021/07/28 04:49:44;;;;;;;21.92;12.07;;;;;;;;;;793162;174;919613;-66
2021/07/28 04:52:12;;;;;;;13.83;11.93;;;;;;;;;;801395;173;919568;-65
2021/07/28 04:54:36;;;;;;;18.03;12.77;;;;;;;;;;793109;173;918416;-65
2021/07/28 04:57:02;;;;;;;14.32;10.40;;;;;;;;;;793608;173;1009724;-65
2021/07/28 04:59:28;;;;;;;13.60;11.30;;;;;;;;;;795184;173;919083;-65
2021/07/28 05:01:54;;;;;;;14.87;10.90;;;;;;;;;;797246;174;918690;-67
2021/07/28 05:04:19;;;;;;;16.20;10.67;;;;;;;;;;792974;174;919566;-66
2021/07/28 05:06:45;;;;;;;16.03;10.20;;;;;;;;;;788524;174;918880;-67
2021/07/28 05:09:12;;;;;;;16.87;10.30;;;;;;;;;;782461;176;813970;-65
2021/07/28 05:11:37;;;;;;;18.00;9.73;;;;;;;;;;788424;174;920207;-65
2021/07/28 05:14:03;;;;;;;13.97;10.13;;;;;;;;;;793411;174;919834;-65
2021/07/28 05:16:29;;;;;;;16.00;10.60;;;;;;;;;;796244;174;915391;-65
2021/07/28 05:18:55;;;;;;;13.70;10.07;;;;;;;;;;787886;174;916214;-66
2021/07/28 05:21:21;;;;;;;14.87;11.40;;;;;;;;;;792429;174;916524;-67
2021/07/28 05:23:47;;;;;;;12.60;10.40;;;;;;;;;;798520;174;920053;-67
2021/07/28 05:26:12;;;;;;;12.97;9.57;;;;;;;;;;791527;174;917372;-67
2021/07/28 05:28:38;;;;;;;12.90;9.70;;;;;;;;;;791820;174;939414;-66
2021/07/28 05:31:04;;;;;;;13.13;9.13;;;;;;;;;;794566;174;916487;-67
2021/07/28 05:33:30;;;;;;;15.93;10.93;;;;;;;;;;800851;174;915268;-67
2021/07/28 05:35:56;;;;;;;16.70;10.00;;;;;;;;;;792754;174;918842;-66
2021/07/28 05:38:22;;;;;;;12.97;10.50;;;;;;;;;;796695;174;918238;-66
2021/07/28 05:40:48;;;;;;;15.70;9.70;;;;;;;;;;800041;174;915568;-66
2021/07/28 05:43:13;;;;;;;13.80;9.47;;;;;;;;;;793364;174;919195;-65
2021/07/28 05:45:39;;;;;;;14.63;8.67;;;;;;;;;;792864;174;919643;-66
2021/07/28 05:48:05;;;;;;;13.37;9.50;;;;;;;;;;799955;174;915341;-68
2021/07/28 05:50:31;;;;;;;11.37;8.70;;;;;;;;;;792727;174;915298;-67
2021/07/28 05:52:57;;;;;;;16.23;9.43;;;;;;;;;;790040;174;914693;-67
2021/07/28 05:55:23;;;;;;;11.90;8.90;;;;;;;;;;793520;174;918771;-66
2021/07/28 05:57:53;;;;;;;12.03;9.40;;;;;;;;;;788234;175;920214;-67
2021/07/28 06:00:15;;;;;;;16.07;9.40;;;;;;;;;;783453;177;920806;-66
2021/07/28 06:02:41;;;;;;;17.47;9.53;;;;;;;;;;782078;176;915204;-67
2021/07/28 06:05:07;;;;;;;11.80;7.90;;;;;;;;;;789792;173;907315;-66
2021/07/28 06:07:33;;;;;;;12.73;8.60;;;;;;;;;;791575;173;916424;-66
2021/07/28 06:09:58;;;;;;;19.07;8.70;;;;;;;;;;791353;173;917360;-66
2021/07/28 06:12:24;;;;;;;14.33;8.07;;;;;;;;;;799717;173;916271;-70
2021/07/28 06:14:50;;;;;;;20.10;9.17;;;;;;;;;;792929;174;915839;-67
2021/07/28 06:17:16;;;;;;;16.83;9.43;;;;;;;;;;790775;176;920831;-65
2021/07/28 06:19:43;;;;;;;18.83;9.03;;;;;;;;;;799154;174;918754;-66
2021/07/28 06:22:09;;;;;;;21.53;9.00;;;;;;;;;;795064;174;918684;-66
2021/07/28 06:24:34;;;;;;;15.40;8.00;;;;;;;;;;790806;174;920265;-66
2021/07/28 06:27:00;;;;;;;19.60;7.97;;;;;;;;;;793163;174;915629;-67
2021/07/28 06:29:26;;;;;;;12.27;7.40;;;;;;;;;;800857;174;920174;-66
2021/07/28 06:31:52;;;;;;;12.97;8.23;;;;;;;;;;791008;174;918182;-65
2021/07/28 06:34:18;;;;;;;16.17;8.87;;;;;;;;;;795141;175;893550;-66
2021/07/28 06:36:43;;;;;;;14.80;8.20;;;;;;;;;;800895;174;915426;-66
2021/07/28 06:39:09;;;;;;;15.77;8.27;;;;;;;;;;793247;174;916206;-67
2021/07/28 06:41:35;;;;;;;14.27;7.77;;;;;;;;;;793626;173;916132;-68
2021/07/28 06:44:01;;;;;;;24.53;9.43;;;;;;;;;;786301;176;619032;-68
2021/07/28 06:46:27;;;;;;;18.62;8.43;;;;;;;;;;794396;174;919065;-68
2021/07/28 06:48:54;;;;;;;18.80;7.80;;;;;;;;;;794643;174;919868;-66
2021/07/28 06:51:20;;;;;;;14.20;7.97;;;;;;;;;;792387;174;919327;-66
2021/07/28 06:53:45;;;;;;;17.60;8.27;;;;;;;;;;789672;176;918787;-66
2021/07/28 06:56:13;;;;;;;18.02;8.30;;;;;;;;;;795086;174;919440;-66
2021/07/28 06:58:37;;;;;;;18.37;8.30;;;;;;;;;;790346;174;918676;-66
2021/07/28 07:01:05;;;;;;;11.10;6.93;;;;;;;;;;796273;174;1015493;-65
2021/07/28 07:03:29;;;;;;;12.20;7.97;;;;;;;;;;792884;174;919243;-65
2021/07/28 07:05:55;;;;;;;16.20;9.30;;;;;;;;;;793403;174;919552;-66
2021/07/28 07:08:20;;;;;;;15.23;8.87;;;;;;;;;;802850;172;918218;-66
2021/07/28 07:10:46;;;;;;;16.13;7.60;;;;;;;;;;792762;173;919431;-66
2021/07/28 07:13:12;;;;;;;12.13;7.10;;;;;;;;;;797371;173;919007;-66
2021/07/28 07:15:38;;;;;;;17.77;7.37;;;;;;;;;;794650;173;918242;-65
2021/07/28 07:18:04;;;;;;;14.03;8.23;;;;;;;;;;793706;176;919677;-66
2021/07/28 07:20:30;;;;;;;16.20;8.20;;;;;;;;;;785410;173;919242;-66
2021/07/28 07:22:56;;;;;;;16.10;9.13;;;;;;;;;;794278;173;918966;-66
2021/07/28 07:25:22;;;;;;;23.23;8.80;;;;;;;;;;799120;174;918202;-66
2021/07/28 07:27:47;;;;;;;20.27;9.47;;;;;;;;;;793973;174;919194;-66
2021/07/28 07:30:13;;;;;;;15.83;8.20;;;;;;;;;;794486;174;918415;-66
2021/07/28 07:32:39;;;;;;;20.77;8.60;;;;;;;;;;797786;174;918377;-66
2021/07/28 07:35:06;;;;;;;27.00;8.93;;;;;;;;;;792221;174;919404;-66
2021/07/28 07:37:33;;;;;;;19.00;7.97;;;;;;;;;;792773;174;918951;-66
2021/07/28 07:39:59;;;;;;;15.53;8.60;;;;;;;;;;796264;175;917695;-64
2021/07/28 07:42:25;;;;;;;17.93;9.20;;;;;;;;;;788735;177;917627;-66
2021/07/28 07:44:53;;;;;;;17.67;7.50;;;;;;;;;;792181;174;919199;-65
2021/07/28 07:47:18;;;;;;;15.15;8.40;;;;;;;;;;791976;174;919482;-65
2021/07/28 07:49:42;;;;;;;24.23;8.60;;;;;;;;;;799443;174;920726;-65
2021/07/28 07:52:08;;;;;;;18.03;8.40;;;;;;;;;;791948;174;919957;-65
2021/07/28 07:54:34;;;;;;;16.00;7.90;;;;;;;;;;792951;174;918182;-65
2021/07/28 07:57:00;;;;;;;17.17;7.80;;;;;;;;;;784727;175;919047;-65
2021/07/28 07:59:25;;;;;;;16.00;8.63;;;;;;;;;;792748;174;919549;-65
2021/07/28 08:01:51;;;;;;;21.63;10.43;;;;;;;;;;795525;174;919471;-65
2021/07/28 08:04:21;;;;;;;16.20;9.20;;;;;;;;;;800801;174;919333;-65
2021/07/28 08:06:44;;;;;;;21.67;9.77;;;;;;;;;;790831;174;919308;-66
2021/07/28 08:09:09;;;;;;;28.30;8.10;;;;;;;;;;792434;174;923485;-67
2021/07/28 08:11:35;;;;;;;17.57;8.60;;;;;;;;;;792814;174;919500;-65
2021/07/28 08:14:00;;;;;;;15.23;7.97;;;;;;;;;;787397;176;918341;-65
2021/07/28 08:16:26;;;;;;;11.07;8.00;;;;;;;;;;784186;174;919670;-66
2021/07/28 08:18:52;;;;;;;13.10;7.80;;;;;;;;;;794642;173;919228;-64
2021/07/28 08:21:18;;;;;;;25.13;9.53;;;;;;;;;;802325;173;918815;-67
2021/07/28 08:23:45;;;;;;;16.53;8.73;;;;;;;;;;794043;173;919000;-67
2021/07/28 08:26:10;;;;;;;20.20;8.52;;;;;;;;;;793869;174;1123381;-67
2021/07/28 08:28:36;;;;;;;17.03;8.10;;;;;;;;;;798131;175;919187;-65
2021/07/28 08:31:01;;;;;;;17.80;9.20;;;;;;;;;;793641;174;938885;-67
2021/07/28 08:33:27;;;;;;;18.17;8.63;;;;;;;;;;793194;173;919912;-65
2021/07/28 08:35:55;;;;;;;17.87;7.93;;;;;;;;;;798545;173;920596;-65
2021/07/28 08:38:21;;;;;;;20.10;8.60;;;;;;;;;;792735;176;919095;-66
2021/07/28 08:40:46;;;;;;;19.70;8.07;;;;;;;;;;783637;175;919239;-66
2021/07/28 08:43:11;;;;;;;15.20;7.17;;;;;;;;;;781103;176;918685;-65
2021/07/28 08:45:37;;;;;;;15.13;8.17;;;;;;;;;;787738;176;977106;-64
2021/07/28 08:48:03;;;;;;;16.20;8.47;;;;;;;;;;786768;174;919480;-65
2021/07/28 08:50:29;;;;;;;12.77;7.60;;;;;;;;;;791709;174;919055;-66
2021/07/28 08:52:55;;;;;;;18.02;8.63;;;;;;;;;;797205;174;919314;-65
2021/07/28 08:55:22;;;;;;;21.60;8.87;;;;;;;;;;790393;174;919332;-64
2021/07/28 08:57:47;;;;;;;13.67;8.07;;;;;;;;;;790389;174;913480;-66
2021/07/28 09:00:13;;;;;;;15.20;8.67;;;;;;;;;;800733;174;914576;-65
2021/07/28 09:02:38;;;;;;;18.57;7.50;;;;;;;;;;792246;174;915869;-64
2021/07/28 09:05:04;;;;;;;15.80;8.63;;;;;;;;;;792774;174;915723;-65
2021/07/28 09:07:30;;;;;;;23.43;9.17;;;;;;;;;;780649;176;916396;-65
2021/07/28 09:09:57;;;;;;;12.33;8.10;;;;;;;;;;788441;174;918213;-64
2021/07/28 09:12:30;;;;;;;14.00;9.50;;;;;;;;;;792106;174;915681;-65
2021/07/28 09:14:55;;;;;;;19.17;8.97;;;;;;;;;;791795;174;919015;-65
2021/07/28 09:17:23;;;;;;;18.63;9.10;;;;;;;;;;795872;174;897692;-65
2021/07/28 09:19:46;;;;;;;14.33;8.23;;;;;;;;;;798235;174;1133133;-65
2021/07/28 09:22:12;;;;;;;17.40;8.37;;;;;;;;;;785396;174;1000942;-66
2021/07/28 09:24:38;;;;;;;16.67;7.40;;;;;;;;;;795928;174;919408;-66
2021/07/28 09:27:04;;;;;;;18.37;8.10;;;;;;;;;;797889;174;918399;-65
2021/07/28 09:29:30;;;;;;;12.57;7.53;;;;;;;;;;795439;174;919034;-66
2021/07/28 09:31:56;;;;;;;12.83;7.80;;;;;;;;;;792831;174;921693;-67
2021/07/28 09:34:36;;;;;;;10.27;7.30;;;;;;;;;;800719;173;939972;-65
2021/07/28 09:37:04;;;;;;;14.60;8.00;;;;;;;;;;797136;176;918820;-66
2021/07/28 09:39:30;;;;;;;13.80;7.50;;;;;;;;;;799708;173;918391;-65
2021/07/28 09:41:56;;;;;;;15.13;8.67;;;;;;;;;;795496;173;919158;-66
2021/07/28 09:44:22;;;;;;;16.33;9.00;;;;;;;;;;801197;173;919008;-66
2021/07/28 09:46:50;;;;;;;16.70;7.30;;;;;;;;;;792604;173;919740;-66
2021/07/28 09:49:14;;;;;;;14.80;9.17;;;;;;;;;;792031;174;940285;-65
2021/07/28 09:51:41;;;;;;;18.50;8.80;;;;;;;;;;785771;174;918736;-64
2021/07/28 09:54:06;;;;;;;19.27;9.60;;;;;;;;;;786692;177;918951;-66
2021/07/28 09:56:47;;;;;;;15.40;10.30;;;;;;;;;;786369;174;919271;-66
2021/07/28 09:59:13;;;;;;;20.77;7.97;;;;;;;;;;784705;174;1029432;-66
2021/07/28 10:01:39;;;;;;;16.87;9.17;;;;;;;;;;785968;176;918920;-66
2021/07/28 10:04:05;;;;;;;20.60;8.37;;;;;;;;;;798770;174;918842;-65
2021/07/28 10:06:38;;;;;;;12.13;9.50;;;;;;;;;;794287;174;919780;-67
2021/07/28 10:08:58;;;;;;;11.23;7.83;;;;;;;;;;791546;174;918386;-66
2021/07/28 10:11:24;;;;;;;14.60;8.70;;;;;;;;;;800918;174;918815;-66
2021/07/28 10:13:51;;;;;;;16.00;8.73;;;;;;;;;;792825;174;919790;-66
2021/07/28 10:16:17;;;;;;;16.20;9.47;;;;;;;;;;790949;175;1022872;-66
2021/07/28 10:18:43;;;;;;;15.20;8.63;;;;;;;;;;793707;174;919559;-66
2021/07/28 10:21:09;;;;;;;19.40;8.77;;;;;;;;;;789263;176;919255;-68
2021/07/28 10:23:34;;;;;;;17.90;9.32;;;;;;;;;;784503;176;918287;-64
2021/07/28 10:26:00;;;;;;;17.43;9.07;;;;;;;;;;788278;174;920099;-65
2021/07/28 10:28:26;;;;;;;13.13;8.13;;;;;;;;;;800106;174;919006;-68
2021/07/28 10:30:58;;;;;;;16.67;8.10;;;;;;;;;;790596;174;919886;-66
2021/07/28 10:33:25;;;;;;;18.77;8.60;;;;;;;;;;791738;174;919325;-67
2021/07/28 10:35:50;;;;;;;19.43;9.37;;;;;;;;;;791779;174;919054;-67
2021/07/28 10:38:18;;;;;;;14.37;8.63;;;;;;;;;;783448;176;920164;-66
2021/07/28 10:40:47;;;;;;;14.70;7.60;;;;;;;;;;788141;173;919244;-67
2021/07/28 10:43:13;;;;;;;16.00;9.10;;;;;;;;;;794307;173;926541;-66
2021/07/28 10:45:54;;;;;;;21.53;7.90;;;;;;;;;;800204;173;918749;-65
2021/07/28 10:48:26;;;;;;;12.67;7.73;;;;;;;;;;795665;176;919182;-67
2021/07/28 10:50:52;;;;;;;18.57;9.63;;;;;;;;;;787094;173;1022330;-66
2021/07/28 10:53:17;;;;;;;11.17;7.43;;;;;;;;;;793269;173;918570;-66
2021/07/28 10:55:43;;;;;;;19.20;7.80;;;;;;;;;;789557;173;928823;-66
2021/07/28 10:58:24;;;;;;;16.77;8.03;;;;;;;;;;799729;173;918095;-67
2021/07/28 11:00:50;;;;;;;18.57;8.00;;;;;;;;;;794536;175;919777;-66
2021/07/28 11:03:17;;;;;;;16.13;9.87;;;;;;;;;;790986;174;920010;-68
2021/07/28 11:05:42;;;;;;;15.40;7.83;;;;;;;;;;784837;177;919478;-67
2021/07/28 11:08:08;;;;;;;12.57;7.37;;;;;;;;;;781891;177;917471;-67
2021/07/28 11:10:44;;;;;;;14.87;8.57;;;;;;;;;;790921;174;921074;-67
2021/07/28 11:13:10;;;;;;;15.70;7.93;;;;;;;;;;794633;174;918442;-66
2021/07/28 11:15:36;;;;;;;17.93;8.60;;;;;;;;;;785781;176;919533;-66
2021/07/28 11:18:02;;;;;;;21.43;9.00;;;;;;;;;;797044;174;918981;-66
2021/07/28 11:20:30;;;;;;;17.27;9.37;;;;;;;;;;796797;174;918306;-67
2021/07/28 11:22:59;;;;;;;14.53;7.80;;;;;;;;;;781184;176;918728;-68
2021/07/28 11:25:25;;;;;;;15.20;8.93;;;;;;;;;;791807;174;921878;-68
2021/07/28 11:27:56;;;;;;;20.73;8.70;;;;;;;;;;790595;174;918974;-67
2021/07/28 11:30:22;;;;;;;18.00;7.50;;;;;;;;;;790772;174;918897;-67
2021/07/28 11:32:48;;;;;;;17.17;8.70;;;;;;;;;;793513;174;920183;-66
2021/07/28 11:35:14;;;;;;;28.03;8.73;;;;;;;;;;793960;174;920585;-68
2021/07/28 11:37:39;;;;;;;16.37;6.90;;;;;;;;;;795464;174;919544;-67
2021/07/28 11:40:06;;;;;;;32.70;10.37;;;;;;;;;;793527;174;920105;-66
2021/07/28 11:42:32;;;;;;;11.37;7.13;;;;;;;;;;797531;174;917809;-68
2021/07/28 11:44:58;;;;;;;13.47;7.30;;;;;;;;;;786454;174;920992;-66
2021/07/28 11:47:23;;;;;;;16.53;8.07;;;;;;;;;;792143;174;919161;-65
2021/07/28 11:49:55;;;;;;;11.67;8.03;;;;;;;;;;792472;174;925740;-66
2021/07/28 11:52:21;;;;;;;19.20;10.10;;;;;;;;;;796685;174;917073;-67
2021/07/28 11:54:47;;;;;;;16.27;7.97;;;;;;;;;;795262;173;917151;-65
2021/07/28 11:57:13;;;;;;;16.80;7.93;;;;;;;;;;789251;173;1017589;-69
2021/07/28 11:59:39;;;;;;;15.90;8.30;;;;;;;;;;795712;173;919449;-68
2021/07/28 12:02:05;;;;;;;12.17;6.87;;;;;;;;;;785547;173;921481;-67
2021/07/28 12:04:30;;;;;;;15.23;8.00;;;;;;;;;;792247;177;919239;-67
2021/07/28 12:07:00;;;;;;;13.00;8.10;;;;;;;;;;793691;173;919334;-66
2021/07/28 12:09:22;;;;;;;12.93;8.00;;;;;;;;;;787643;175;919453;-67
2021/07/28 12:11:48;;;;;;;13.40;7.03;;;;;;;;;;783135;176;918527;-67
2021/07/28 12:14:20;;;;;;;11.30;8.20;;;;;;;;;;787814;174;918572;-66
2021/07/28 12:16:46;;;;;;;13.55;8.05;;;;;;;;;;800453;173;916507;-66
2021/07/28 12:19:12;;;;;;;19.13;8.80;;;;;;;;;;786522;174;1021257;-67
2021/07/28 12:21:44;;;;;;;17.27;7.82;;;;;;;;;;780385;176;919175;-67
2021/07/28 12:24:09;;;;;;;15.43;8.10;;;;;;;;;;780399;174;918689;-67
2021/07/28 12:26:41;;;;;;;16.30;8.57;;;;;;;;;;799577;174;917419;-67
2021/07/28 12:29:07;;;;;;;15.00;7.83;;;;;;;;;;783589;176;918168;-67
2021/07/28 12:31:33;;;;;;;13.77;7.60;;;;;;;;;;788419;174;919717;-67
2021/07/28 12:34:13;;;;;;;15.90;8.50;;;;;;;;;;793967;174;918873;-67
2021/07/28 12:36:39;;;;;;;17.87;8.13;;;;;;;;;;796289;174;919173;-67
2021/07/28 12:39:05;;;;;;;16.50;7.97;;;;;;;;;;786109;174;918845;-67
2021/07/28 12:41:31;;;;;;;13.47;7.93;;;;;;;;;;793780;174;918960;-67
2021/07/28 12:43:57;;;;;;;14.00;7.23;;;;;;;;;;783756;176;918774;-67
2021/07/28 12:46:23;;;;;;;16.77;8.10;;;;;;;;;;786571;176;919592;-67
2021/07/28 12:48:49;;;;;;;13.73;7.47;;;;;;;;;;778202;174;919186;-70
2021/07/28 12:51:19;;;;;;;14.33;7.87;;;;;;;;;;780656;176;918822;-67
2021/07/28 12:53:40;;;;;;;13.60;7.53;;;;;;;;;;795378;174;920010;-67
2021/07/28 12:56:06;;;;;;;10.67;7.10;;;;;;;;;;794011;174;920433;-67
2021/07/28 12:58:32;;;;;;;14.73;8.00;;;;;;;;;;791642;175;913624;-67
2021/07/28 13:00:59;;;;;;;16.30;9.20;;;;;;;;;;794084;174;917440;-67
2021/07/28 13:03:26;;;;;;;17.07;7.13;;;;;;;;;;790845;173;919032;-67
2021/07/28 13:05:55;;;;;;;17.83;8.57;;;;;;;;;;794585;174;917865;-69
2021/07/28 13:08:17;;;;;;;11.10;7.27;;;;;;;;;;794383;173;923995;-66
2021/07/28 13:10:43;;;;;;;10.20;6.77;;;;;;;;;;799182;173;919743;-69
2021/07/28 13:13:08;;;;;;;10.10;6.70;;;;;;;;;;792027;173;916185;-68
2021/07/28 13:15:34;;;;;;;17.67;7.50;;;;;;;;;;793106;173;916725;-68
2021/07/28 13:18:01;;;;;;;14.93;7.30;;;;;;;;;;799448;173;914866;-68
2021/07/28 13:20:27;;;;;;;11.50;6.50;;;;;;;;;;795608;173;915691;-68
2021/07/28 13:22:53;;;;;;;16.80;7.27;;;;;;;;;;794151;174;915833;-67
2021/07/28 13:25:18;;;;;;;18.03;7.50;;;;;;;;;;801369;174;915430;-67
2021/07/28 13:27:44;;;;;;;9.80;7.10;;;;;;;;;;791530;174;919067;-67
2021/07/28 13:30:10;;;;;;;11.05;6.68;;;;;;;;;;793630;174;906755;-66
2021/07/28 13:32:36;;;;;;;11.23;6.67;;;;;;;;;;794590;175;916331;-66
2021/07/28 13:35:02;;;;;;;17.03;7.30;;;;;;;;;;790246;176;1016917;-67
2021/07/28 13:37:28;;;;;;;11.93;6.60;;;;;;;;;;793134;174;919801;-66
2021/07/28 13:39:54;;;;;;;10.70;7.63;;;;;;;;;;794595;174;917985;-69
2021/07/28 13:42:19;;;;;;;18.37;7.73;;;;;;;;;;789084;176;919447;-67
2021/07/28 13:44:45;;;;;;;16.90;7.90;;;;;;;;;;791508;174;918466;-68
2021/07/28 13:47:11;;;;;;;12.70;6.80;;;;;;;;;;796329;174;914945;-67
2021/07/28 13:49:37;;;;;;;15.43;7.50;;;;;;;;;;797442;174;915851;-67
2021/07/28 13:52:03;;;;;;;13.40;7.70;;;;;;;;;;793102;174;915292;-67
2021/07/28 13:54:29;;;;;;;10.93;7.70;;;;;;;;;;793158;174;920830;-67
2021/07/28 13:57:01;;;;;;;15.40;8.10;;;;;;;;;;798806;174;915340;-66
2021/07/28 13:59:27;;;;;;;12.00;6.97;;;;;;;;;;791108;175;919043;-66
2021/07/28 14:01:52;;;;;;;12.63;7.60;;;;;;;;;;786609;175;1021683;-67
2021/07/28 14:04:18;;;;;;;12.80;7.40;;;;;;;;;;792719;174;918630;-67
2021/07/28 14:06:44;;;;;;;9.70;6.97;;;;;;;;;;797121;174;918786;-67
2021/07/28 14:09:10;;;;;;;16.73;7.97;;;;;;;;;;791933;174;918744;-67